sensor_id;sensor_type;location;lat;lon;timestamp;pressure;altitude;pressure_sealevel;temperature;humidity
35892;BME280;21993;42.672;23.296;2022-10-10T00:01:29;95435.06;;;16.11;66.98
35892;BME280;21993;42.672;23.296;2022-10-10T00:03:56;95444.31;;;16.07;66.84
35892;BME280;21993;42.672;23.296;2022-10-10T00:06:22;95434.56;;;16.07;67.09
35892;BME280;21993;42.672;23.296;2022-10-10T00:08:49;95445.44;;;16.04;67.13
35892;BME280;21993;42.672;23.296;2022-10-10T00:11:16;95455.50;;;16.00;67.04
35892;BME280;21993;42.672;23.296;2022-10-10T00:13:43;95452.47;;;15.95;67.34
35892;BME280;21993;42.672;23.296;2022-10-10T00:16:09;95452.31;;;15.97;67.24
35892;BME280;21993;42.672;23.296;2022-10-10T00:18:35;95451.34;;;15.98;67.35
35892;BME280;21993;42.672;23.296;2022-10-10T00:21:00;95446.94;;;15.89;67.68
35892;BME280;21993;42.672;23.296;2022-10-10T00:23:26;95445.16;;;15.89;67.76
35892;BME280;21993;42.672;23.296;2022-10-10T00:25:51;95445.75;;;15.83;67.98
35892;BME280;21993;42.672;23.296;2022-10-10T00:28:17;95438.63;;;15.84;67.81
35892;BME280;21993;42.672;23.296;2022-10-10T00:30:43;95446.00;;;15.80;67.61
35892;BME280;21993;42.672;23.296;2022-10-10T00:33:08;95441.28;;;15.84;67.73
35892;BME280;21993;42.672;23.296;2022-10-10T00:35:34;95448.38;;;15.83;68.00
35892;BME280;21993;42.672;23.296;2022-10-10T00:37:59;95452.38;;;15.87;68.23
35892;BME280;21993;42.672;23.296;2022-10-10T00:40:25;95447.78;;;15.89;68.05
35892;BME280;21993;42.672;23.296;2022-10-10T00:42:50;95449.38;;;15.82;68.14
35892;BME280;21993;42.672;23.296;2022-10-10T00:45:27;95442.84;;;15.76;68.17
35892;BME280;21993;42.672;23.296;2022-10-10T00:48:00;95444.25;;;15.71;68.43
35892;BME280;21993;42.672;23.296;2022-10-10T00:50:28;95443.00;;;15.75;68.45
35892;BME280;21993;42.672;23.296;2022-10-10T00:52:54;95448.81;;;15.79;68.38
35892;BME280;21993;42.672;23.296;2022-10-10T00:55:20;95450.53;;;15.70;68.89
35892;BME280;21993;42.672;23.296;2022-10-10T00:57:46;95448.56;;;15.72;68.34
35892;BME280;21993;42.672;23.296;2022-10-10T01:00:12;95446.09;;;15.70;68.22
35892;BME280;21993;42.672;23.296;2022-10-10T01:02:37;95445.41;;;15.68;68.12
35892;BME280;21993;42.672;23.296;2022-10-10T01:05:03;95445.28;;;15.60;68.57
35892;BME280;21993;42.672;23.296;2022-10-10T01:07:30;95446.31;;;15.49;68.75
35892;BME280;21993;42.672;23.296;2022-10-10T01:10:07;95443.94;;;15.56;68.49
35892;BME280;21993;42.672;23.296;2022-10-10T01:15:48;95458.06;;;15.37;69.12
35892;BME280;21993;42.672;23.296;2022-10-10T01:18:31;95460.72;;;15.37;68.52
35892;BME280;21993;42.672;23.296;2022-10-10T01:26:33;95454.75;;;15.35;67.96
35892;BME280;21993;42.672;23.296;2022-10-10T01:29:17;95455.72;;;15.34;68.20
35892;BME280;21993;42.672;23.296;2022-10-10T01:31:50;95454.22;;;15.32;68.14
35892;BME280;21993;42.672;23.296;2022-10-10T01:37:00;95456.03;;;15.21;68.53
35892;BME280;21993;42.672;23.296;2022-10-10T01:42:27;95458.41;;;15.25;68.59
35892;BME280;21993;42.672;23.296;2022-10-10T01:44:55;95447.88;;;15.15;68.34
35892;BME280;21993;42.672;23.296;2022-10-10T01:47:21;95441.72;;;15.24;68.41
35892;BME280;21993;42.672;23.296;2022-10-10T01:49:49;95446.44;;;15.30;67.94
35892;BME280;21993;42.672;23.296;2022-10-10T01:52:26;95448.38;;;15.28;67.61
35892;BME280;21993;42.672;23.296;2022-10-10T01:55:21;95449.50;;;15.26;68.30
35892;BME280;21993;42.672;23.296;2022-10-10T01:58:16;95455.81;;;15.15;68.40
35892;BME280;21993;42.672;23.296;2022-10-10T02:00:56;95451.41;;;15.06;68.58
35892;BME280;21993;42.672;23.296;2022-10-10T02:03:30;95456.69;;;15.06;68.71
35892;BME280;21993;42.672;23.296;2022-10-10T02:06:10;95452.34;;;15.05;68.64
35892;BME280;21993;42.672;23.296;2022-10-10T02:08:53;95452.75;;;15.10;68.39
35892;BME280;21993;42.672;23.296;2022-10-10T02:11:22;95454.03;;;15.06;68.56
35892;BME280;21993;42.672;23.296;2022-10-10T02:14:02;95455.28;;;15.02;68.67
35892;BME280;21993;42.672;23.296;2022-10-10T02:16:33;95455.59;;;14.99;68.85
35892;BME280;21993;42.672;23.296;2022-10-10T02:19:05;95461.41;;;15.02;68.63
35892;BME280;21993;42.672;23.296;2022-10-10T02:21:32;95469.19;;;15.04;68.84
35892;BME280;21993;42.672;23.296;2022-10-10T02:24:01;95463.22;;;15.02;68.78
35892;BME280;21993;42.672;23.296;2022-10-10T02:26:29;95467.00;;;14.99;68.66
35892;BME280;21993;42.672;23.296;2022-10-10T02:31:49;95461.84;;;14.88;69.60
35892;BME280;21993;42.672;23.296;2022-10-10T02:34:20;95459.78;;;14.91;69.67
35892;BME280;21993;42.672;23.296;2022-10-10T02:36:50;95465.22;;;14.90;69.34
35892;BME280;21993;42.672;23.296;2022-10-10T02:39:17;95469.66;;;14.89;69.73
35892;BME280;21993;42.672;23.296;2022-10-10T02:41:46;95468.00;;;14.88;69.86
35892;BME280;21993;42.672;23.296;2022-10-10T02:44:13;95466.72;;;14.92;69.81
35892;BME280;21993;42.672;23.296;2022-10-10T02:46:39;95468.53;;;14.92;69.71
35892;BME280;21993;42.672;23.296;2022-10-10T02:49:08;95466.72;;;14.92;69.69
35892;BME280;21993;42.672;23.296;2022-10-10T02:51:34;95465.47;;;14.87;69.55
35892;BME280;21993;42.672;23.296;2022-10-10T02:54:00;95461.19;;;14.86;69.85
35892;BME280;21993;42.672;23.296;2022-10-10T02:56:25;95466.06;;;14.81;70.17
35892;BME280;21993;42.672;23.296;2022-10-10T02:58:51;95463.69;;;14.78;70.55
35892;BME280;21993;42.672;23.296;2022-10-10T03:01:16;95472.72;;;14.85;69.87
35892;BME280;21993;42.672;23.296;2022-10-10T03:03:42;95471.22;;;14.82;70.15
35892;BME280;21993;42.672;23.296;2022-10-10T03:06:08;95470.66;;;14.88;70.12
35892;BME280;21993;42.672;23.296;2022-10-10T03:08:36;95460.50;;;14.84;70.42
35892;BME280;21993;42.672;23.296;2022-10-10T03:11:02;95471.22;;;14.82;69.64
35892;BME280;21993;42.672;23.296;2022-10-10T03:13:27;95463.00;;;14.85;69.54
35892;BME280;21993;42.672;23.296;2022-10-10T03:15:53;95462.47;;;14.72;70.05
35892;BME280;21993;42.672;23.296;2022-10-10T03:18:18;95466.22;;;14.70;70.20
35892;BME280;21993;42.672;23.296;2022-10-10T03:20:51;95472.06;;;14.73;69.97
35892;BME280;21993;42.672;23.296;2022-10-10T03:23:17;95474.97;;;14.70;69.96
35892;BME280;21993;42.672;23.296;2022-10-10T03:25:43;95475.28;;;14.67;69.70
35892;BME280;21993;42.672;23.296;2022-10-10T03:28:09;95475.56;;;14.64;69.89
35892;BME280;21993;42.672;23.296;2022-10-10T03:30:35;95479.75;;;14.57;70.43
35892;BME280;21993;42.672;23.296;2022-10-10T03:33:00;95482.25;;;14.58;70.16
35892;BME280;21993;42.672;23.296;2022-10-10T03:35:26;95473.03;;;14.62;70.05
35892;BME280;21993;42.672;23.296;2022-10-10T03:37:51;95484.88;;;14.58;70.12
35892;BME280;21993;42.672;23.296;2022-10-10T03:40:17;95478.91;;;14.66;69.52
35892;BME280;21993;42.672;23.296;2022-10-10T03:42:42;95478.47;;;14.61;70.00
35892;BME280;21993;42.672;23.296;2022-10-10T03:45:08;95486.00;;;14.56;69.93
35892;BME280;21993;42.672;23.296;2022-10-10T03:47:33;95481.81;;;14.53;70.17
35892;BME280;21993;42.672;23.296;2022-10-10T03:49:59;95482.09;;;14.50;69.97
35892;BME280;21993;42.672;23.296;2022-10-10T03:52:24;95482.53;;;14.55;70.05
35892;BME280;21993;42.672;23.296;2022-10-10T03:54:49;95483.22;;;14.48;69.96
35892;BME280;21993;42.672;23.296;2022-10-10T03:57:15;95478.78;;;14.48;70.19
35892;BME280;21993;42.672;23.296;2022-10-10T03:59:40;95477.13;;;14.47;69.87
35892;BME280;21993;42.672;23.296;2022-10-10T04:02:06;95480.28;;;14.41;70.06
35892;BME280;21993;42.672;23.296;2022-10-10T04:04:31;95481.69;;;14.45;70.13
35892;BME280;21993;42.672;23.296;2022-10-10T04:06:56;95482.50;;;14.46;70.20
35892;BME280;21993;42.672;23.296;2022-10-10T04:09:22;95489.03;;;14.42;70.21
35892;BME280;21993;42.672;23.296;2022-10-10T04:11:47;95491.69;;;14.42;69.99
35892;BME280;21993;42.672;23.296;2022-10-10T04:14:13;95489.19;;;14.40;70.16
35892;BME280;21993;42.672;23.296;2022-10-10T04:16:38;95492.22;;;14.35;70.14
35892;BME280;21993;42.672;23.296;2022-10-10T04:19:03;95491.81;;;14.30;70.55
35892;BME280;21993;42.672;23.296;2022-10-10T04:21:29;95492.81;;;14.29;70.76
35892;BME280;21993;42.672;23.296;2022-10-10T04:23:54;95496.81;;;14.33;70.88
35892;BME280;21993;42.672;23.296;2022-10-10T04:26:20;95492.50;;;14.32;70.45
35892;BME280;21993;42.672;23.296;2022-10-10T04:28:45;95486.41;;;14.32;70.36
35892;BME280;21993;42.672;23.296;2022-10-10T04:31:10;95491.94;;;14.19;71.29
35892;BME280;21993;42.672;23.296;2022-10-10T04:33:36;95491.94;;;14.19;71.25
35892;BME280;21993;42.672;23.296;2022-10-10T04:36:01;95489.03;;;14.22;70.78
35892;BME280;21993;42.672;23.296;2022-10-10T04:38:27;95483.47;;;14.16;71.18
35892;BME280;21993;42.672;23.296;2022-10-10T04:40:53;95496.25;;;14.20;71.00
35892;BME280;21993;42.672;23.296;2022-10-10T04:43:18;95494.72;;;14.18;71.35
35892;BME280;21993;42.672;23.296;2022-10-10T04:45:44;95496.81;;;14.24;71.02
35892;BME280;21993;42.672;23.296;2022-10-10T04:48:09;95493.06;;;14.17;71.23
35892;BME280;21993;42.672;23.296;2022-10-10T04:50:35;95496.97;;;14.22;71.16
35892;BME280;21993;42.672;23.296;2022-10-10T04:53:01;95495.69;;;14.17;71.48
35892;BME280;21993;42.672;23.296;2022-10-10T04:55:27;95499.03;;;14.19;71.66
35892;BME280;21993;42.672;23.296;2022-10-10T04:57:52;95495.16;;;14.23;71.07
35892;BME280;21993;42.672;23.296;2022-10-10T05:00:18;95504.88;;;14.13;71.32
35892;BME280;21993;42.672;23.296;2022-10-10T05:02:43;95499.03;;;14.09;71.27
35892;BME280;21993;42.672;23.296;2022-10-10T05:05:09;95502.66;;;14.08;71.31
35892;BME280;21993;42.672;23.296;2022-10-10T05:07:34;95508.06;;;14.06;72.02
35892;BME280;21993;42.672;23.296;2022-10-10T05:10:00;95509.31;;;14.12;71.64
35892;BME280;21993;42.672;23.296;2022-10-10T05:12:25;95509.19;;;14.14;71.53
35892;BME280;21993;42.672;23.296;2022-10-10T05:14:50;95516.28;;;14.13;71.64
35892;BME280;21993;42.672;23.296;2022-10-10T05:17:16;95516.00;;;14.16;71.96
35892;BME280;21993;42.672;23.296;2022-10-10T05:19:41;95508.50;;;14.21;72.08
35892;BME280;21993;42.672;23.296;2022-10-10T05:22:07;95512.81;;;14.22;71.91
35892;BME280;21993;42.672;23.296;2022-10-10T05:24:32;95516.69;;;14.18;71.89
35892;BME280;21993;42.672;23.296;2022-10-10T05:26:58;95519.47;;;14.17;72.22
35892;BME280;21993;42.672;23.296;2022-10-10T05:29:24;95527.09;;;14.20;72.08
35892;BME280;21993;42.672;23.296;2022-10-10T05:31:49;95528.09;;;14.19;72.26
35892;BME280;21993;42.672;23.296;2022-10-10T05:34:15;95526.41;;;14.27;72.27
35892;BME280;21993;42.672;23.296;2022-10-10T05:36:41;95526.84;;;14.32;72.60
35892;BME280;21993;42.672;23.296;2022-10-10T05:39:07;95532.69;;;14.36;72.35
35892;BME280;21993;42.672;23.296;2022-10-10T05:41:32;95539.09;;;14.33;72.76
35892;BME280;21993;42.672;23.296;2022-10-10T05:43:58;95539.91;;;14.34;73.25
35892;BME280;21993;42.672;23.296;2022-10-10T05:46:23;95538.94;;;14.35;73.19
35892;BME280;21993;42.672;23.296;2022-10-10T05:48:52;95538.78;;;14.36;72.98
35892;BME280;21993;42.672;23.296;2022-10-10T05:51:18;95539.81;;;14.45;73.06
35892;BME280;21993;42.672;23.296;2022-10-10T05:53:45;95539.09;;;14.43;72.98
35892;BME280;21993;42.672;23.296;2022-10-10T05:56:10;95540.38;;;14.49;73.17
35892;BME280;21993;42.672;23.296;2022-10-10T05:58:37;95541.06;;;14.51;72.85
35892;BME280;21993;42.672;23.296;2022-10-10T06:01:04;95548.00;;;14.52;73.11
35892;BME280;21993;42.672;23.296;2022-10-10T06:03:30;95552.31;;;14.62;72.76
35892;BME280;21993;42.672;23.296;2022-10-10T06:05:56;95555.25;;;14.59;73.23
35892;BME280;21993;42.672;23.296;2022-10-10T06:08:23;95552.91;;;14.56;73.50
35892;BME280;21993;42.672;23.296;2022-10-10T06:10:50;95551.91;;;14.57;73.61
35892;BME280;21993;42.672;23.296;2022-10-10T06:13:17;95557.19;;;14.67;73.26
35892;BME280;21993;42.672;23.296;2022-10-10T06:15:43;95558.47;;;14.73;73.10
35892;BME280;21993;42.672;23.296;2022-10-10T06:18:09;95560.97;;;14.74;73.12
35892;BME280;21993;42.672;23.296;2022-10-10T06:20:39;95565.66;;;14.71;73.18
35892;BME280;21993;42.672;23.296;2022-10-10T06:23:06;95558.59;;;14.81;73.08
35892;BME280;21993;42.672;23.296;2022-10-10T06:25:33;95555.09;;;14.90;72.14
35892;BME280;21993;42.672;23.296;2022-10-10T06:27:59;95564.69;;;14.91;71.46
35892;BME280;21993;42.672;23.296;2022-10-10T06:30:24;95566.91;;;14.96;71.43
35892;BME280;21993;42.672;23.296;2022-10-10T06:32:50;95570.94;;;15.00;71.07
35892;BME280;21993;42.672;23.296;2022-10-10T06:35:16;95567.44;;;15.09;69.84
35892;BME280;21993;42.672;23.296;2022-10-10T06:37:41;95570.25;;;15.07;70.57
35892;BME280;21993;42.672;23.296;2022-10-10T06:40:07;95574.13;;;15.23;69.78
35892;BME280;21993;42.672;23.296;2022-10-10T06:42:32;95573.28;;;15.22;69.72
35892;BME280;21993;42.672;23.296;2022-10-10T06:44:58;95573.13;;;15.24;69.66
35892;BME280;21993;42.672;23.296;2022-10-10T06:47:23;95573.00;;;15.25;69.81
35892;BME280;21993;42.672;23.296;2022-10-10T06:49:49;95572.53;;;15.30;69.53
35892;BME280;21993;42.672;23.296;2022-10-10T06:52:14;95571.72;;;15.29;69.80
35892;BME280;21993;42.672;23.296;2022-10-10T06:54:40;95570.72;;;15.40;69.69
35892;BME280;21993;42.672;23.296;2022-10-10T06:57:05;95576.56;;;15.43;69.30
35892;BME280;21993;42.672;23.296;2022-10-10T06:59:31;95581.97;;;15.61;68.61
35892;BME280;21993;42.672;23.296;2022-10-10T07:01:56;95584.72;;;15.69;67.67
35892;BME280;21993;42.672;23.296;2022-10-10T07:04:22;95577.56;;;15.80;67.68
35892;BME280;21993;42.672;23.296;2022-10-10T07:06:47;95577.03;;;15.76;67.83
35892;BME280;21993;42.672;23.296;2022-10-10T07:09:12;95583.06;;;15.68;68.00
35892;BME280;21993;42.672;23.296;2022-10-10T07:11:38;95583.72;;;15.70;68.13
35892;BME280;21993;42.672;23.296;2022-10-10T07:14:05;95581.34;;;15.77;68.23
35892;BME280;21993;42.672;23.296;2022-10-10T07:16:31;95578.84;;;15.75;68.59
35892;BME280;21993;42.672;23.296;2022-10-10T07:18:58;95576.81;;;15.87;68.12
35892;BME280;21993;42.672;23.296;2022-10-10T07:21:23;95576.31;;;15.84;68.35
35892;BME280;21993;42.672;23.296;2022-10-10T07:23:48;95572.25;;;15.89;68.64
35892;BME280;21993;42.672;23.296;2022-10-10T07:26:14;95569.59;;;15.89;68.67
35892;BME280;21993;42.672;23.296;2022-10-10T07:28:41;95569.91;;;16.04;68.33
35892;BME280;21993;42.672;23.296;2022-10-10T07:31:08;95576.75;;;16.07;68.33
35892;BME280;21993;42.672;23.296;2022-10-10T07:33:46;95568.75;;;16.16;68.25
35892;BME280;21993;42.672;23.296;2022-10-10T07:36:12;95567.09;;;16.33;67.58
35892;BME280;21993;42.672;23.296;2022-10-10T07:38:38;95570.28;;;16.37;67.86
35892;BME280;21993;42.672;23.296;2022-10-10T07:41:08;95573.94;;;16.53;66.68
35892;BME280;21993;42.672;23.296;2022-10-10T07:43:34;95565.69;;;16.56;66.40
35892;BME280;21993;42.672;23.296;2022-10-10T07:45:59;95559.59;;;16.64;65.99
35892;BME280;21993;42.672;23.296;2022-10-10T07:48:25;95557.44;;;16.59;66.20
35892;BME280;21993;42.672;23.296;2022-10-10T07:50:51;95561.06;;;16.58;66.35
35892;BME280;21993;42.672;23.296;2022-10-10T07:53:16;95558.25;;;16.60;66.18
35892;BME280;21993;42.672;23.296;2022-10-10T07:55:43;95544.53;;;16.65;66.23
35892;BME280;21993;42.672;23.296;2022-10-10T07:58:09;95558.94;;;16.62;66.86
35892;BME280;21993;42.672;23.296;2022-10-10T08:00:36;95558.03;;;16.89;65.62
35892;BME280;21993;42.672;23.296;2022-10-10T08:03:02;95552.13;;;16.95;64.92
35892;BME280;21993;42.672;23.296;2022-10-10T08:05:28;95547.13;;;16.92;65.37
35892;BME280;21993;42.672;23.296;2022-10-10T08:07:53;95545.22;;;17.02;65.18
35892;BME280;21993;42.672;23.296;2022-10-10T08:10:19;95548.44;;;17.14;64.46
35892;BME280;21993;42.672;23.296;2022-10-10T08:12:44;95537.28;;;17.28;63.40
35892;BME280;21993;42.672;23.296;2022-10-10T08:15:10;95544.13;;;17.13;64.12
35892;BME280;21993;42.672;23.296;2022-10-10T08:17:36;95545.44;;;17.09;64.53
35892;BME280;21993;42.672;23.296;2022-10-10T08:20:02;95545.19;;;17.20;64.85
35892;BME280;21993;42.672;23.296;2022-10-10T08:22:27;95541.97;;;17.34;63.72
35892;BME280;21993;42.672;23.296;2022-10-10T08:24:53;95545.72;;;17.24;64.58
35892;BME280;21993;42.672;23.296;2022-10-10T08:27:18;95548.25;;;17.33;64.02
35892;BME280;21993;42.672;23.296;2022-10-10T08:29:45;95548.59;;;17.38;64.29
35892;BME280;21993;42.672;23.296;2022-10-10T08:32:11;95544.00;;;17.40;64.18
35892;BME280;21993;42.672;23.296;2022-10-10T08:34:36;95534.75;;;17.53;63.89
35892;BME280;21993;42.672;23.296;2022-10-10T08:37:02;95539.06;;;17.54;63.52
35892;BME280;21993;42.672;23.296;2022-10-10T08:39:27;95542.28;;;17.57;63.98
35892;BME280;21993;42.672;23.296;2022-10-10T08:41:59;95537.75;;;17.76;63.35
35892;BME280;21993;42.672;23.296;2022-10-10T08:44:50;95543.44;;;17.97;62.28
35892;BME280;21993;42.672;23.296;2022-10-10T08:47:47;95548.31;;;18.02;62.27
35892;BME280;21993;42.672;23.296;2022-10-10T08:55:22;95547.31;;;18.03;62.63
35892;BME280;21993;42.672;23.296;2022-10-10T08:57:49;95541.03;;;18.12;62.33
35892;BME280;21993;42.672;23.296;2022-10-10T09:00:21;95548.03;;;18.21;61.53
35892;BME280;21993;42.672;23.296;2022-10-10T09:02:52;95545.56;;;18.27;61.62
35892;BME280;21993;42.672;23.296;2022-10-10T09:13:36;95555.56;;;18.58;59.12
35892;BME280;21993;42.672;23.296;2022-10-10T09:16:29;95547.94;;;18.63;58.52
35892;BME280;21993;42.672;23.296;2022-10-10T09:21:55;95566.94;;;18.68;59.01
35892;BME280;21993;42.672;23.296;2022-10-10T09:24:33;95568.09;;;18.74;58.46
35892;BME280;21993;42.672;23.296;2022-10-10T09:27:04;95570.44;;;18.77;58.00
35892;BME280;21993;42.672;23.296;2022-10-10T09:29:41;95566.78;;;18.78;57.42
35892;BME280;21993;42.672;23.296;2022-10-10T09:35:14;95572.44;;;18.83;57.52
35892;BME280;21993;42.672;23.296;2022-10-10T09:37:42;95569.94;;;18.81;57.84
35892;BME280;21993;42.672;23.296;2022-10-10T09:42:37;95565.97;;;19.02;55.95
35892;BME280;21993;42.672;23.296;2022-10-10T09:45:35;95565.63;;;18.97;56.59
35892;BME280;21993;42.672;23.296;2022-10-10T09:48:01;95563.63;;;18.99;56.50
35892;BME280;21993;42.672;23.296;2022-10-10T09:50:27;95565.47;;;18.98;56.98
35892;BME280;21993;42.672;23.296;2022-10-10T09:52:53;95560.47;;;19.11;55.65
35892;BME280;21993;42.672;23.296;2022-10-10T09:55:29;95560.13;;;18.98;56.53
35892;BME280;21993;42.672;23.296;2022-10-10T09:58:08;95568.47;;;19.11;56.50
35892;BME280;21993;42.672;23.296;2022-10-10T10:00:36;95563.78;;;19.05;56.29
35892;BME280;21993;42.672;23.296;2022-10-10T10:05:40;95558.47;;;19.13;55.26
35892;BME280;21993;42.672;23.296;2022-10-10T10:08:18;95550.97;;;19.25;55.12
35892;BME280;21993;42.672;23.296;2022-10-10T10:10:44;95541.50;;;19.06;55.80
35892;BME280;21993;42.672;23.296;2022-10-10T10:13:16;95549.84;;;19.11;55.35
35892;BME280;21993;42.672;23.296;2022-10-10T10:15:49;95547.97;;;19.28;54.76
35892;BME280;21993;42.672;23.296;2022-10-10T10:20:43;95551.66;;;19.27;55.46
35892;BME280;21993;42.672;23.296;2022-10-10T10:28:56;95548.63;;;19.30;55.37
35892;BME280;21993;42.672;23.296;2022-10-10T10:31:48;95546.31;;;19.44;54.52
35892;BME280;21993;42.672;23.296;2022-10-10T10:37:24;95537.13;;;19.46;54.40
35892;BME280;21993;42.672;23.296;2022-10-10T10:42:52;95535.94;;;19.65;54.01
35892;BME280;21993;42.672;23.296;2022-10-10T10:47:55;95530.78;;;19.63;53.92
35892;BME280;21993;42.672;23.296;2022-10-10T10:50:42;95533.47;;;19.63;54.13
35892;BME280;21993;42.672;23.296;2022-10-10T10:56:10;95535.66;;;19.60;53.81
35892;BME280;21993;42.672;23.296;2022-10-10T10:58:55;95525.63;;;19.62;54.49
35892;BME280;21993;42.672;23.296;2022-10-10T11:01:43;95520.28;;;19.70;53.96
35892;BME280;21993;42.672;23.296;2022-10-10T11:07:03;95502.13;;;19.74;54.19
35892;BME280;21993;42.672;23.296;2022-10-10T11:13:13;95489.44;;;19.76;54.31
35892;BME280;21993;42.672;23.296;2022-10-10T11:16:56;95508.81;;;19.70;54.72
35892;BME280;21993;42.672;23.296;2022-10-10T11:19:00;95504.66;;;19.59;53.63
35892;BME280;21993;42.672;23.296;2022-10-10T11:21:31;95501.28;;;19.73;53.49
35892;BME280;21993;42.672;23.296;2022-10-10T11:24:04;95499.97;;;19.69;53.72
35892;BME280;21993;42.672;23.296;2022-10-10T11:26:46;95504.59;;;19.75;53.39
35892;BME280;21993;42.672;23.296;2022-10-10T11:29:19;95501.94;;;19.75;53.97
35892;BME280;21993;42.672;23.296;2022-10-10T11:31:54;95496.09;;;19.80;53.54
35892;BME280;21993;42.672;23.296;2022-10-10T11:34:27;95489.81;;;19.73;53.07
35892;BME280;21993;42.672;23.296;2022-10-10T11:37:00;95485.66;;;19.70;53.54
35892;BME280;21993;42.672;23.296;2022-10-10T11:39:33;95479.81;;;19.66;53.86
35892;BME280;21993;42.672;23.296;2022-10-10T11:42:07;95469.63;;;19.78;53.53
35892;BME280;21993;42.672;23.296;2022-10-10T11:44:43;95472.44;;;19.85;53.21
35892;BME280;21993;42.672;23.296;2022-10-10T11:50:35;95458.44;;;19.83;53.14
35892;BME280;21993;42.672;23.296;2022-10-10T11:53:29;95458.44;;;19.83;53.06
35892;BME280;21993;42.672;23.296;2022-10-10T11:56:03;95464.13;;;19.80;53.78
35892;BME280;21993;42.672;23.296;2022-10-10T11:58:39;95453.63;;;19.86;54.05
35892;BME280;21993;42.672;23.296;2022-10-10T12:03:42;95445.44;;;19.88;53.19
35892;BME280;21993;42.672;23.296;2022-10-10T12:06:35;95444.06;;;19.92;52.84
35892;BME280;21993;42.672;23.296;2022-10-10T12:09:23;95445.91;;;19.91;53.29
35892;BME280;21993;42.672;23.296;2022-10-10T12:11:57;95451.41;;;19.90;53.34
35892;BME280;21993;42.672;23.296;2022-10-10T12:14:27;95448.88;;;19.96;53.37
35892;BME280;21993;42.672;23.296;2022-10-10T12:16:55;95450.41;;;19.91;53.46
35892;BME280;21993;42.672;23.296;2022-10-10T12:19:23;95440.84;;;20.05;53.01
35892;BME280;21993;42.672;23.296;2022-10-10T12:22:17;95429.50;;;20.11;52.85
35892;BME280;21993;42.672;23.296;2022-10-10T12:28:00;95419.53;;;20.05;53.04
35892;BME280;21993;42.672;23.296;2022-10-10T12:30:26;95430.19;;;20.05;53.03
35892;BME280;21993;42.672;23.296;2022-10-10T12:32:52;95417.16;;;20.10;52.86
35892;BME280;21993;42.672;23.296;2022-10-10T12:35:38;95413.97;;;20.14;51.68
35892;BME280;21993;42.672;23.296;2022-10-10T12:40:33;95415.38;;;20.25;52.71
35892;BME280;21993;42.672;23.296;2022-10-10T12:48:00;95416.88;;;20.50;51.43
35892;BME280;21993;42.672;23.296;2022-10-10T12:50:28;95416.81;;;20.59;51.23
35892;BME280;21993;42.672;23.296;2022-10-10T12:53:13;95412.97;;;20.61;49.50
35892;BME280;21993;42.672;23.296;2022-10-10T12:55:43;95415.53;;;20.55;50.81
35892;BME280;21993;42.672;23.296;2022-10-10T12:58:37;95411.97;;;20.62;50.00
35892;BME280;21993;42.672;23.296;2022-10-10T13:01:49;95417.75;;;20.66;49.79
35892;BME280;21993;42.672;23.296;2022-10-10T13:03:54;95412.78;;;20.63;50.02
35892;BME280;21993;42.672;23.296;2022-10-10T13:06:39;95409.88;;;20.49;49.89
35892;BME280;21993;42.672;23.296;2022-10-10T13:09:27;95412.75;;;20.48;49.84
35892;BME280;21993;42.672;23.296;2022-10-10T13:12:05;95415.03;;;20.51;50.16
35892;BME280;21993;42.672;23.296;2022-10-10T13:14:44;95410.19;;;20.55;50.00
35892;BME280;21993;42.672;23.296;2022-10-10T13:19:48;95400.72;;;20.52;50.34
35892;BME280;21993;42.672;23.296;2022-10-10T13:22:14;95406.97;;;20.59;49.81
35892;BME280;21993;42.672;23.296;2022-10-10T13:24:41;95404.56;;;20.49;49.46
35892;BME280;21993;42.672;23.296;2022-10-10T13:27:14;95395.31;;;20.60;49.77
35892;BME280;21993;42.672;23.296;2022-10-10T13:29:41;95402.56;;;20.51;50.06
35892;BME280;21993;42.672;23.296;2022-10-10T13:32:12;95406.19;;;20.50;49.90
35892;BME280;21993;42.672;23.296;2022-10-10T13:34:53;95406.81;;;20.61;50.17
35892;BME280;21993;42.672;23.296;2022-10-10T13:37:19;95403.53;;;20.50;50.93
35892;BME280;21993;42.672;23.296;2022-10-10T13:39:47;95400.97;;;20.57;49.81
35892;BME280;21993;42.672;23.296;2022-10-10T13:42:34;95402.13;;;20.63;49.98
35892;BME280;21993;42.672;23.296;2022-10-10T13:45:27;95397.13;;;20.60;49.92
35892;BME280;21993;42.672;23.296;2022-10-10T13:50:34;95402.81;;;20.57;50.78
35892;BME280;21993;42.672;23.296;2022-10-10T14:04:07;95399.16;;;20.58;50.08
35892;BME280;21993;42.672;23.296;2022-10-10T14:07:10;95402.66;;;20.58;49.30
35892;BME280;21993;42.672;23.296;2022-10-10T14:09:40;95403.72;;;20.49;49.67
35892;BME280;21993;42.672;23.296;2022-10-10T14:12:30;95403.84;;;20.56;49.67
35892;BME280;21993;42.672;23.296;2022-10-10T14:14:59;95399.06;;;20.43;49.55
35892;BME280;21993;42.672;23.296;2022-10-10T14:17:26;95404.66;;;20.33;50.15
35892;BME280;21993;42.672;23.296;2022-10-10T14:19:51;95398.16;;;20.36;50.18
35892;BME280;21993;42.672;23.296;2022-10-10T14:22:17;95399.31;;;20.33;50.46
35892;BME280;21993;42.672;23.296;2022-10-10T14:24:46;95389.56;;;20.48;49.91
35892;BME280;21993;42.672;23.296;2022-10-10T14:27:29;95388.72;;;20.48;49.75
35892;BME280;21993;42.672;23.296;2022-10-10T14:29:55;95394.09;;;20.40;50.29
35892;BME280;21993;42.672;23.296;2022-10-10T14:32:22;95388.94;;;20.38;50.46
35892;BME280;21993;42.672;23.296;2022-10-10T14:34:48;95393.25;;;20.47;50.28
35892;BME280;21993;42.672;23.296;2022-10-10T14:37:23;95383.41;;;20.48;50.03
35892;BME280;21993;42.672;23.296;2022-10-10T14:39:49;95392.63;;;20.37;50.26
35892;BME280;21993;42.672;23.296;2022-10-10T14:42:16;95387.00;;;20.32;49.94
35892;BME280;21993;42.672;23.296;2022-10-10T14:44:42;95386.03;;;20.25;50.50